Time;durP1;ratioP1;P1;durP2;ratioP2;P2;SDS_P1;SDS_P2;PMS_P1;PMS_P2;Temp;Humidity;BMP_temperature;BMP_pressure;BME280_temperature;BME280_humidity;BME280_pressure;Samples;Min_cycle;Max_cycle;Signal;HPM_P1;HPM_P2
2022/11/22 00:00:06;;;;;;;16.67;6.35;;;;;;;4.15;100.00;94813.72;5015971;28;20037;-69
2022/11/22 00:02:33;;;;;;;11.43;5.80;;;;;;;4.34;100.00;94810.81;5015704;28;20049;-69
2022/11/22 00:04:58;;;;;;;13.57;5.65;;;;;;;4.34;100.00;94812.72;5019607;28;20402;-69
2022/11/22 00:07:24;;;;;;;10.45;5.20;;;;;;;4.39;100.00;94804.28;5014356;28;20049;-70
2022/11/22 00:09:49;;;;;;;13.60;6.25;;;;;;;4.49;100.00;94795.47;5020001;28;20119;-69
2022/11/22 00:12:14;;;;;;;14.50;5.57;;;;;;;4.79;100.00;94808.91;5015241;28;20049;-69
2022/11/22 00:14:40;;;;;;;11.73;6.13;;;;;;;4.95;100.00;94816.78;5018969;28;20117;-69
2022/11/22 00:17:05;;;;;;;10.80;5.05;;;;;;;5.07;100.00;94806.78;4995589;28;20041;-69
2022/11/22 00:19:31;;;;;;;12.95;5.45;;;;;;;5.20;100.00;94808.00;5000668;28;20070;-69
2022/11/22 00:21:56;;;;;;;14.77;5.80;;;;;;;5.07;100.00;94823.81;5020692;28;20455;-72
2022/11/22 00:24:21;;;;;;;9.30;4.80;;;;;;;4.93;100.00;94808.25;5014542;28;20535;-70
2022/11/22 00:26:47;;;;;;;38.35;10.45;;;;;;;5.14;100.00;94806.81;5018496;28;20053;-70
2022/11/22 00:29:13;;;;;;;16.15;6.15;;;;;;;5.08;100.00;94806.41;5012180;28;20091;-70
2022/11/22 00:31:39;;;;;;;15.45;6.00;;;;;;;4.93;100.00;94812.88;5018905;28;20115;-69
2022/11/22 00:34:04;;;;;;;22.30;8.02;;;;;;;5.06;100.00;94797.88;4993467;28;20030;-70
2022/11/22 00:36:30;;;;;;;24.02;7.40;;;;;;;5.06;100.00;94805.19;5017425;28;20125;-69
2022/11/22 00:38:55;;;;;;;16.73;6.38;;;;;;;4.95;100.00;94816.78;5003774;28;20041;-69
2022/11/22 00:41:21;;;;;;;10.15;5.28;;;;;;;4.93;100.00;94808.25;5013208;28;22784;-69
2022/11/22 00:43:46;;;;;;;12.00;5.50;;;;;;;4.95;100.00;94811.34;5018440;28;20575;-70
2022/11/22 00:46:11;;;;;;;12.93;5.60;;;;;;;4.90;100.00;94814.41;5011791;28;20117;-71
2022/11/22 00:48:37;;;;;;;13.07;5.28;;;;;;;4.85;100.00;94809.31;5019893;28;20044;-71
2022/11/22 00:51:02;;;;;;;12.57;5.85;;;;;;;4.73;100.00;94799.53;5026205;28;20044;-69
2022/11/22 00:53:28;;;;;;;12.85;6.38;;;;;;;4.46;100.00;94806.28;5020104;28;20076;-70
2022/11/22 00:55:53;;;;;;;7.65;5.20;;;;;;;4.52;100.00;94808.28;5004058;28;20045;-70
2022/11/22 00:58:18;;;;;;;11.93;5.55;;;;;;;4.81;100.00;94796.88;5000412;28;20041;-70
2022/11/22 01:00:44;;;;;;;8.05;5.30;;;;;;;4.84;100.00;94810.47;5017877;28;20041;-69
2022/11/22 01:03:11;;;;;;;12.45;6.35;;;;;;;4.68;100.00;94799.09;5012258;28;20040;-69
2022/11/22 01:05:37;;;;;;;11.60;6.50;;;;;;;4.60;100.00;94812.59;5017710;28;20431;-68
2022/11/22 01:08:02;;;;;;;12.32;5.72;;;;;;;4.53;100.00;94809.06;5014918;28;20140;-69
2022/11/22 01:10:28;;;;;;;10.93;6.10;;;;;;;4.47;100.00;94811.31;5017080;28;20122;-68
2022/11/22 01:12:53;;;;;;;14.45;6.40;;;;;;;4.42;100.00;94803.53;5017803;28;20061;-68
2022/11/22 01:15:19;;;;;;;18.70;6.82;;;;;;;4.41;100.00;94804.66;4993933;28;20494;-68
2022/11/22 01:17:44;;;;;;;12.70;6.68;;;;;;;4.43;100.00;94810.53;5018922;28;20052;-70
2022/11/22 01:20:10;;;;;;;16.75;6.70;;;;;;;4.46;100.00;94808.97;5013420;28;20038;-70
2022/11/22 01:22:35;;;;;;;14.63;7.10;;;;;;;4.44;100.00;94805.88;5024317;28;20037;-70
2022/11/22 01:25:01;;;;;;;15.75;7.50;;;;;;;4.58;100.00;94809.47;5029973;28;20043;-70
2022/11/22 01:27:26;;;;;;;16.33;6.03;;;;;;;4.75;100.00;94801.88;5023763;28;20108;-71
2022/11/22 01:29:52;;;;;;;14.30;7.00;;;;;;;4.87;100.00;94804.31;5013563;28;20049;-70
2022/11/22 01:32:17;;;;;;;12.18;5.85;;;;;;;5.16;100.00;94801.78;5006685;28;20498;-70
2022/11/22 01:34:42;;;;;;;15.15;5.63;;;;;;;4.85;100.00;94805.84;5028788;28;20107;-69
2022/11/22 01:37:08;;;;;;;13.95;6.90;;;;;;;4.82;100.00;94806.59;5013202;28;20056;-71
2022/11/22 01:39:33;;;;;;;9.95;5.43;;;;;;;4.84;100.00;94809.69;5015408;28;20443;-70
2022/11/22 01:41:59;;;;;;;15.88;6.20;;;;;;;5.03;100.00;94814.88;5002871;28;20156;-69
2022/11/22 01:44:30;;;;;;;10.60;5.95;;;;;;;5.13;100.00;94814.19;5014182;28;20045;-69
2022/11/22 01:47:06;;;;;;;11.50;5.78;;;;;;;5.21;100.00;94817.72;5020045;28;20034;-70
2022/11/22 01:49:58;;;;;;;10.60;5.80;;;;;;;5.20;100.00;94815.38;4983006;28;20108;-70
2022/11/22 01:52:26;;;;;;;17.25;7.00;;;;;;;5.21;100.00;94822.38;5006351;28;20100;-69
2022/11/22 01:54:57;;;;;;;12.73;6.28;;;;;;;5.24;100.00;94829.75;5021145;28;20124;-69
2022/11/22 01:57:30;;;;;;;16.38;6.70;;;;;;;5.28;100.00;94822.44;5014768;28;20049;-71
2022/11/22 02:00:09;;;;;;;16.08;7.80;;;;;;;5.30;100.00;94837.16;5048861;28;20091;-70
2022/11/22 02:02:36;;;;;;;17.88;7.18;;;;;;;5.31;100.00;94838.75;5042266;28;20052;-70
2022/11/22 02:05:07;;;;;;;19.58;7.32;;;;;;;5.30;100.00;94844.53;5044413;28;20071;-69
2022/11/22 02:07:47;;;;;;;12.43;5.85;;;;;;;5.33;100.00;94847.28;5035587;28;20072;-70
2022/11/22 02:10:16;;;;;;;12.57;6.97;;;;;;;5.39;100.00;94839.56;5048400;28;20502;-70
2022/11/22 02:12:42;;;;;;;11.13;6.30;;;;;;;5.51;100.00;94844.69;5014779;28;20474;-70
2022/11/22 02:15:09;;;;;;;9.07;5.82;;;;;;;5.53;100.00;94844.31;4997614;28;20038;-70
2022/11/22 02:17:34;;;;;;;15.50;6.25;;;;;;;5.61;100.00;94842.41;5052813;28;20045;-69
2022/11/22 02:20:00;;;;;;;14.25;5.97;;;;;;;5.62;100.00;94841.22;5040636;28;20045;-68
2022/11/22 02:22:52;;;;;;;13.10;6.20;;;;;;;5.55;100.00;94844.69;5033900;28;20065;-69
2022/11/22 02:25:31;;;;;;;11.65;6.28;;;;;;;5.45;100.00;94846.19;5033990;28;20037;-70
2022/11/22 02:27:57;;;;;;;11.95;5.30;;;;;;;5.49;100.00;94840.78;5040012;28;20044;-69
2022/11/22 02:30:23;;;;;;;8.27;5.10;;;;;;;5.69;100.00;94836.63;5035220;28;20049;-69
2022/11/22 02:32:48;;;;;;;7.35;4.75;;;;;;;5.65;100.00;94835.03;5024365;28;20136;-67
2022/11/22 02:35:15;;;;;;;6.53;4.63;;;;;;;5.66;100.00;94842.03;4998663;28;20102;-68
2022/11/22 02:37:41;;;;;;;10.82;5.07;;;;;;;5.65;100.00;94829.63;5018846;28;20044;-68
2022/11/22 02:40:13;;;;;;;7.90;4.38;;;;;;;5.57;100.00;94826.09;5015671;28;20042;-69
2022/11/22 02:42:41;;;;;;;10.63;4.72;;;;;;;5.49;100.00;94836.13;5019019;28;20061;-69
2022/11/22 02:45:06;;;;;;;6.95;4.10;;;;;;;5.43;100.00;94842.28;4995617;28;20037;-69
2022/11/22 02:47:32;;;;;;;6.07;4.40;;;;;;;5.35;100.00;94844.97;5019620;28;20458;-70
2022/11/22 02:49:57;;;;;;;8.10;4.88;;;;;;;5.34;100.00;94832.53;5018772;28;20095;-67
2022/11/22 02:52:23;;;;;;;9.40;5.03;;;;;;;5.40;100.00;94840.31;5015012;28;20045;-69
2022/11/22 02:54:48;;;;;;;8.55;4.63;;;;;;;5.39;100.00;94847.69;5020151;28;20099;-69
2022/11/22 02:57:13;;;;;;;10.55;5.10;;;;;;;5.34;100.00;94851.53;5021418;28;20037;-69
2022/11/22 02:59:39;;;;;;;9.70;5.22;;;;;;;5.28;100.00;94861.19;5001832;28;20132;-69
2022/11/22 03:02:04;;;;;;;13.82;6.03;;;;;;;5.31;100.00;94860.47;5015023;28;20037;-70
2022/11/22 03:04:29;;;;;;;13.40;5.80;;;;;;;5.30;100.00;94860.84;4999697;28;20042;-69
2022/11/22 03:06:58;;;;;;;15.20;5.22;;;;;;;5.29;100.00;94865.47;5018779;28;20049;-70
2022/11/22 03:09:24;;;;;;;11.10;5.40;;;;;;;5.32;100.00;94863.94;5012731;28;20738;-70
2022/11/22 03:11:50;;;;;;;9.18;5.32;;;;;;;5.40;100.00;94857.38;5018677;28;20111;-69
2022/11/22 03:14:15;;;;;;;9.63;4.70;;;;;;;5.46;100.00;94850.47;5015114;28;20437;-70
2022/11/22 03:16:45;;;;;;;9.05;4.88;;;;;;;5.44;100.00;94851.97;5026236;28;20042;-69
2022/11/22 03:19:12;;;;;;;9.00;4.63;;;;;;;5.50;100.00;94855.91;5006814;28;20045;-69
2022/11/22 03:21:39;;;;;;;12.73;4.60;;;;;;;5.59;100.00;94847.44;5026380;28;20038;-69
2022/11/22 03:24:06;;;;;;;9.70;4.43;;;;;;;5.45;100.00;94854.31;5022926;28;20067;-64
2022/11/22 03:26:31;;;;;;;7.50;4.40;;;;;;;5.51;100.00;94850.13;5023839;28;20092;-71
2022/11/22 03:28:57;;;;;;;8.70;4.43;;;;;;;5.44;100.00;94850.06;5005721;28;20430;-71
2022/11/22 03:31:22;;;;;;;9.38;4.07;;;;;;;5.44;100.00;94851.97;5002075;28;20065;-70
2022/11/22 03:33:47;;;;;;;9.18;4.30;;;;;;;5.47;100.00;94852.00;5020820;28;20060;-70
2022/11/22 03:36:13;;;;;;;12.52;4.28;;;;;;;5.48;100.00;94858.25;5024597;28;20045;-69
2022/11/22 03:38:38;;;;;;;12.65;4.18;;;;;;;5.46;100.00;94857.84;5023928;28;20041;-69
2022/11/22 03:41:04;;;;;;;8.73;4.28;;;;;;;5.46;100.00;94855.13;5018694;28;20128;-68
2022/11/22 03:43:29;;;;;;;11.23;4.85;;;;;;;5.44;100.00;94857.41;5020462;28;20041;-69
2022/11/22 03:45:54;;;;;;;11.73;4.78;;;;;;;5.38;100.00;94845.38;5022770;28;20050;-69
2022/11/22 03:48:20;;;;;;;13.65;5.28;;;;;;;5.43;100.00;94845.00;5011734;28;20074;-70
2022/11/22 03:50:45;;;;;;;15.27;5.13;;;;;;;5.45;100.00;94840.75;5021576;28;20049;-68
2022/11/22 03:53:11;;;;;;;12.98;5.30;;;;;;;5.38;100.00;94848.84;5018082;28;20056;-69
2022/11/22 03:55:37;;;;;;;14.57;5.63;;;;;;;5.35;100.00;94846.91;5021119;28;20048;-68
2022/11/22 03:58:03;;;;;;;10.32;4.70;;;;;;;5.47;100.00;94840.38;5026798;28;20522;-67
2022/11/22 04:00:29;;;;;;;8.63;4.78;;;;;;;5.35;100.00;94841.47;5042551;28;20044;-69
2022/11/22 04:02:54;;;;;;;9.73;4.50;;;;;;;5.33;100.00;94846.47;5041224;28;20041;-69
2022/11/22 04:05:20;;;;;;;8.90;4.25;;;;;;;5.30;100.00;94849.97;5018398;28;20044;-69
2022/11/22 04:07:45;;;;;;;14.38;5.10;;;;;;;5.27;100.00;94846.06;5042089;28;20041;-69
2022/11/22 04:10:11;;;;;;;13.77;5.40;;;;;;;5.37;100.00;94858.16;5037473;28;20045;-69
2022/11/22 04:12:37;;;;;;;12.75;4.90;;;;;;;5.45;100.00;94848.91;5042097;28;20036;-69
2022/11/22 04:15:06;;;;;;;6.82;4.60;;;;;;;5.35;100.00;94849.63;5040825;28;20049;-67
2022/11/22 04:17:43;;;;;;;11.18;5.38;;;;;;;5.25;100.00;94847.59;5022161;28;20050;-69
2022/11/22 04:23:04;;;;;;;10.32;5.07;;;;;;;5.18;100.00;94861.91;5021661;28;20156;-72
2022/11/22 04:25:37;;;;;;;12.73;4.80;;;;;;;5.10;100.00;94858.34;5020952;28;20553;-69
2022/11/22 04:28:04;;;;;;;10.32;5.45;;;;;;;5.07;100.00;94861.03;5020263;28;20085;-68
2022/11/22 04:33:15;;;;;;;14.65;5.40;;;;;;;5.11;100.00;94875.41;5017423;28;20049;-70
2022/11/22 04:35:42;;;;;;;11.32;4.63;;;;;;;5.14;100.00;94870.00;5021244;28;20571;-70
2022/11/22 04:38:07;;;;;;;12.38;5.22;;;;;;;5.19;100.00;94879.75;5017272;28;20038;-70
2022/11/22 04:40:33;;;;;;;9.07;4.80;;;;;;;5.25;100.00;94877.47;5023269;28;20045;-70
2022/11/22 04:45:44;;;;;;;13.63;5.15;;;;;;;5.28;100.00;94887.56;5022317;28;20406;-68
2022/11/22 04:48:11;;;;;;;13.77;5.15;;;;;;;5.33;100.00;94887.19;5017585;28;20045;-69
2022/11/22 04:53:22;;;;;;;9.50;4.10;;;;;;;5.41;100.00;94882.63;5015000;28;20136;-70
2022/11/22 04:55:47;;;;;;;12.90;4.88;;;;;;;5.36;100.00;94887.22;5023372;28;20042;-70
2022/11/22 04:58:13;;;;;;;16.65;5.05;;;;;;;5.42;100.00;94892.31;5007294;28;20789;-71
2022/11/22 05:00:38;;;;;;;13.02;5.32;;;;;;;5.44;100.00;94890.00;5025873;28;20037;-69
2022/11/22 05:03:05;;;;;;;10.60;4.45;;;;;;;5.42;100.00;94889.59;5019945;28;20372;-67
2022/11/22 05:05:34;;;;;;;14.07;4.65;;;;;;;5.47;100.00;94895.44;5000869;28;20375;-72
2022/11/22 05:07:59;;;;;;;12.85;4.20;;;;;;;5.45;100.00;94894.28;5023905;28;20502;-70
2022/11/22 05:10:25;;;;;;;15.75;5.13;;;;;;;5.49;100.00;94898.59;5013189;28;20084;-71
2022/11/22 05:12:50;;;;;;;14.43;4.35;;;;;;;5.50;100.00;94899.38;5022631;28;20103;-70
2022/11/22 05:15:16;;;;;;;15.75;4.80;;;;;;;5.54;100.00;94898.22;5014794;28;20033;-71
2022/11/22 05:17:41;;;;;;;14.02;4.32;;;;;;;5.60;100.00;94895.94;5020674;28;20071;-69
2022/11/22 05:20:08;;;;;;;12.93;4.45;;;;;;;5.52;100.00;94897.81;5016910;28;20053;-68
2022/11/22 05:25:18;;;;;;;10.35;4.15;;;;;;;5.51;100.00;94892.75;5025948;28;20045;-69
2022/11/22 05:27:43;;;;;;;11.82;4.63;;;;;;;5.51;100.00;94898.19;5021985;28;20038;-69
2022/11/22 05:30:09;;;;;;;12.15;4.03;;;;;;;5.48;100.00;94901.69;5006613;28;20379;-71
2022/11/22 05:32:35;;;;;;;16.77;4.63;;;;;;;5.49;100.00;94912.16;5029068;28;20045;-67
2022/11/22 05:35:00;;;;;;;16.13;4.43;;;;;;;5.53;100.00;94912.19;5011218;28;20409;-69
2022/11/22 05:37:29;;;;;;;11.88;5.20;;;;;;;5.61;100.00;94913.78;5019782;28;20046;-69
2022/11/22 05:39:54;;;;;;;12.10;4.93;;;;;;;5.66;100.00;94920.81;5021638;28;20033;-69
2022/11/22 05:42:19;;;;;;;13.93;5.03;;;;;;;5.69;100.00;94915.41;5028464;28;20043;-69
2022/11/22 05:44:45;;;;;;;18.55;5.03;;;;;;;5.62;100.00;94915.34;5041291;28;20122;-69
2022/11/22 05:47:10;;;;;;;9.48;4.70;;;;;;;5.75;100.00;94927.47;5018202;28;20659;-69
2022/11/22 05:49:36;;;;;;;13.15;4.72;;;;;;;5.77;100.00;94927.09;5026070;28;20105;-70
2022/11/22 05:52:02;;;;;;;15.98;5.03;;;;;;;5.73;100.00;94932.50;5038007;28;20111;-69
2022/11/22 05:54:28;;;;;;;13.82;4.70;;;;;;;5.69;100.00;94933.63;5038610;28;20064;-71
2022/11/22 05:56:53;;;;;;;9.77;4.65;;;;;;;5.64;100.00;94937.47;5042985;28;20095;-70
2022/11/22 05:59:19;;;;;;;11.85;4.72;;;;;;;5.59;100.00;94947.91;5019381;28;20069;-69
2022/11/22 06:01:44;;;;;;;9.55;4.72;;;;;;;5.64;100.00;94942.16;5022295;28;20041;-68
2022/11/22 06:04:10;;;;;;;13.57;5.35;;;;;;;5.74;100.00;94947.66;5016894;28;20049;-69
2022/11/22 06:06:35;;;;;;;12.70;5.43;;;;;;;5.65;100.00;94951.84;5019093;28;20065;-69
2022/11/22 06:09:01;;;;;;;11.10;4.18;;;;;;;5.63;100.00;94956.88;5021068;28;20096;-68
2022/11/22 06:11:27;;;;;;;14.93;4.88;;;;;;;5.53;100.00;94953.69;5014965;28;20051;-69
2022/11/22 06:14:03;;;;;;;13.43;5.00;;;;;;;5.60;100.00;94963.03;5021123;28;20139;-69
2022/11/22 06:16:29;;;;;;;17.77;4.53;;;;;;;5.57;100.00;94959.16;5000455;28;20562;-70
2022/11/22 06:18:55;;;;;;;17.80;4.70;;;;;;;5.62;100.00;94972.38;5020574;28;20052;-70
2022/11/22 06:21:23;;;;;;;12.13;4.20;;;;;;;5.50;100.00;94973.44;5015069;28;20037;-70
2022/11/22 06:23:49;;;;;;;9.73;3.70;;;;;;;5.51;100.00;94982.38;5018399;28;20486;-69
2022/11/22 06:26:18;;;;;;;13.57;4.68;;;;;;;5.49;100.00;94990.91;5013881;28;20136;-69
2022/11/22 06:28:44;;;;;;;13.97;4.37;;;;;;;5.57;100.00;94993.69;5020332;28;20041;-68
2022/11/22 06:31:16;;;;;;;12.23;4.43;;;;;;;5.62;100.00;95004.97;5023201;28;20654;-69
2022/11/22 06:33:42;;;;;;;14.07;4.80;;;;;;;5.62;100.00;95001.47;5019809;28;20049;-71
2022/11/22 06:36:13;;;;;;;12.77;4.10;;;;;;;5.63;100.00;95011.19;5011432;28;20061;-71
2022/11/22 06:38:40;;;;;;;12.63;4.28;;;;;;;5.81;100.00;95011.31;5019741;28;20133;-71
2022/11/22 06:41:08;;;;;;;12.05;4.60;;;;;;;5.75;100.00;95008.97;5014922;28;20506;-67
2022/11/22 06:43:36;;;;;;;18.13;5.07;;;;;;;5.86;100.00;95016.41;5014629;28;20190;-72
2022/11/22 06:46:02;;;;;;;18.55;5.30;;;;;;;5.70;100.00;95022.09;5017716;28;20088;-71
2022/11/22 06:48:30;;;;;;;12.95;4.22;;;;;;;5.66;100.00;95024.81;5005451;28;20127;-69
2022/11/22 06:51:04;;;;;;;17.77;4.70;;;;;;;5.59;100.00;95027.44;5025890;28;20360;-69
2022/11/22 06:53:32;;;;;;;9.35;3.95;;;;;;;5.63;100.00;95036.41;5011709;28;20041;-70
2022/11/22 06:56:00;;;;;;;14.98;4.43;;;;;;;5.63;100.00;95033.69;5019919;28;20065;-69
2022/11/22 06:58:26;;;;;;;13.48;4.05;;;;;;;5.57;100.00;95034.44;4991244;28;20493;-69
2022/11/22 07:00:51;;;;;;;13.95;3.85;;;;;;;5.57;100.00;95037.16;5000918;28;20042;-69
2022/11/22 07:03:17;;;;;;;13.20;3.60;;;;;;;5.59;100.00;95034.84;4994740;28;20042;-69
2022/11/22 07:06:01;;;;;;;12.98;3.38;;;;;;;5.67;100.00;95041.88;4982233;28;20113;-69
2022/11/22 07:08:26;;;;;;;10.02;3.33;;;;;;;5.71;100.00;95046.19;4998385;28;20038;-69
2022/11/22 07:10:52;;;;;;;11.75;3.20;;;;;;;5.70;100.00;95044.63;5003787;28;20096;-69
2022/11/22 07:13:17;;;;;;;15.38;3.33;;;;;;;5.76;100.00;95047.75;5001442;28;20570;-69
2022/11/22 07:15:43;;;;;;;8.80;2.95;;;;;;;5.74;100.00;95055.50;5023085;28;20130;-70
2022/11/22 07:18:08;;;;;;;12.77;3.35;;;;;;;5.72;100.00;95050.44;5000756;28;20398;-68
2022/11/22 07:20:33;;;;;;;13.65;3.50;;;;;;;5.72;100.00;95065.97;5026407;28;20037;-68
2022/11/22 07:22:59;;;;;;;10.68;3.22;;;;;;;5.74;100.00;95063.66;5009900;28;20041;-67
2022/11/22 07:25:24;;;;;;;18.48;4.05;;;;;;;5.60;100.00;95072.47;5017265;28;20037;-67
2022/11/22 07:27:52;;;;;;;11.13;3.25;;;;;;;5.65;100.00;95061.25;5024864;28;20451;-67
2022/11/22 07:30:18;;;;;;;11.55;2.85;;;;;;;5.68;100.00;95073.31;5016407;28;20394;-68
2022/11/22 07:32:47;;;;;;;8.02;2.85;;;;;;;5.56;100.00;95074.38;5025800;28;20033;-66
2022/11/22 07:35:13;;;;;;;9.17;2.40;;;;;;;5.55;100.00;95075.53;5038245;28;20445;-68
2022/11/22 07:37:38;;;;;;;12.65;2.90;;;;;;;5.51;100.00;95080.94;5021616;28;20034;-68
2022/11/22 07:40:04;;;;;;;11.77;3.33;;;;;;;5.50;100.00;95078.59;5009468;28;20104;-69
2022/11/22 07:42:29;;;;;;;11.77;3.15;;;;;;;5.53;100.00;95067.75;5036674;28;20421;-68
2022/11/22 07:44:55;;;;;;;7.13;2.30;;;;;;;5.57;100.00;95075.16;5026956;28;20146;-68
2022/11/22 07:47:20;;;;;;;6.70;2.35;;;;;;;5.58;100.00;95080.19;5017394;28;20048;-67
2022/11/22 07:49:45;;;;;;;7.32;2.33;;;;;;;5.55;100.00;95076.31;5021867;28;20045;-67
2022/11/22 07:52:11;;;;;;;8.60;2.72;;;;;;;5.65;100.00;95077.56;5016598;28;20386;-67
2022/11/22 07:54:36;;;;;;;9.75;2.88;;;;;;;5.65;100.00;95069.41;5023177;28;20048;-67
2022/11/22 07:57:02;;;;;;;10.07;3.38;;;;;;;5.62;100.00;95078.31;5019445;28;20053;-67
2022/11/22 07:59:27;;;;;;;10.15;3.28;;;;;;;5.60;100.00;95079.81;5024838;28;20037;-68
2022/11/22 08:01:53;;;;;;;13.02;3.00;;;;;;;5.66;100.00;95081.84;5023787;28;20411;-68
2022/11/22 08:04:18;;;;;;;7.70;2.53;;;;;;;5.61;100.00;95071.31;5023405;28;20041;-68
2022/11/22 08:06:44;;;;;;;8.70;2.97;;;;;;;5.70;100.00;95077.22;5019056;28;20067;-68
2022/11/22 08:09:09;;;;;;;14.43;3.90;;;;;;;5.82;100.00;95067.25;5036698;28;20146;-68
2022/11/22 08:11:35;;;;;;;11.68;3.15;;;;;;;5.63;100.00;95066.28;5030132;28;20048;-68
2022/11/22 08:14:01;;;;;;;9.50;3.08;;;;;;;5.65;100.00;95065.91;5018770;28;20043;-67
2022/11/22 08:16:27;;;;;;;6.40;3.08;;;;;;;5.61;100.00;95071.31;5018280;28;20045;-68
2022/11/22 08:18:52;;;;;;;6.15;2.55;;;;;;;5.55;100.00;95075.53;5028917;28;20049;-68
2022/11/22 08:21:17;;;;;;;13.20;3.20;;;;;;;5.53;100.00;95078.63;5030429;28;20037;-68
2022/11/22 08:23:44;;;;;;;6.95;2.90;;;;;;;5.69;100.00;95091.97;5029656;28;20056;-68
2022/11/22 08:26:13;;;;;;;8.73;2.95;;;;;;;5.66;100.00;95087.28;5020732;28;20038;-69
2022/11/22 08:28:39;;;;;;;6.78;2.83;;;;;;;5.79;100.00;95085.06;5023541;28;20493;-69
2022/11/22 08:31:11;;;;;;;10.45;2.85;;;;;;;5.81;100.00;95092.84;5018365;28;20045;-67
2022/11/22 08:33:36;;;;;;;15.95;3.40;;;;;;;5.79;100.00;95095.16;5004817;28;20045;-67
2022/11/22 08:36:02;;;;;;;8.90;2.80;;;;;;;5.69;100.00;95091.97;5021201;28;20046;-68
2022/11/22 08:38:28;;;;;;;8.18;3.13;;;;;;;5.68;100.00;95097.78;5005972;28;20041;-67
2022/11/22 08:40:53;;;;;;;8.13;2.53;;;;;;;5.66;100.00;95098.13;5020633;28;20052;-67
2022/11/22 08:43:19;;;;;;;6.63;2.20;;;;;;;5.57;100.00;95107.75;4999143;28;20049;-67
2022/11/22 08:45:47;;;;;;;12.20;3.20;;;;;;;5.64;100.00;95108.59;5008473;28;20140;-68
2022/11/22 08:48:12;;;;;;;6.05;2.40;;;;;;;5.61;100.00;95117.47;5000804;28;20053;-67
2022/11/22 08:50:38;;;;;;;11.43;2.90;;;;;;;5.68;100.00;95120.28;5015146;28;20169;-67
2022/11/22 08:53:03;;;;;;;10.90;2.72;;;;;;;5.75;100.00;95133.91;5018107;28;20096;-67
2022/11/22 08:55:29;;;;;;;6.80;2.58;;;;;;;5.73;100.00;95127.31;5002293;28;20068;-67
2022/11/22 08:57:58;;;;;;;5.20;2.55;;;;;;;5.68;100.00;95128.41;5026856;28;20032;-67
2022/11/22 09:00:24;;;;;;;12.48;3.40;;;;;;;5.77;100.00;95130.06;5018929;28;20985;-68
2022/11/22 09:02:49;;;;;;;6.43;2.42;;;;;;;5.73;100.00;95133.53;5042248;28;20183;-66
2022/11/22 09:05:15;;;;;;;10.80;2.72;;;;;;;5.62;100.00;95127.22;5034996;28;20044;-66
2022/11/22 09:07:40;;;;;;;9.30;2.35;;;;;;;5.67;100.00;95135.03;5021065;28;20045;-68
2022/11/22 09:10:07;;;;;;;9.63;2.78;;;;;;;5.80;100.00;95138.25;5003096;28;20065;-66
2022/11/22 09:12:32;;;;;;;9.15;2.95;;;;;;;5.73;100.00;95141.66;4996880;28;20080;-69
2022/11/22 09:14:58;;;;;;;9.27;2.35;;;;;;;5.91;100.00;95154.66;5014620;28;20569;-69
2022/11/22 09:17:23;;;;;;;5.82;2.17;;;;;;;5.91;100.00;95152.72;4991314;28;20488;-67
2022/11/22 09:19:49;;;;;;;8.18;2.33;;;;;;;5.91;100.00;95147.28;5015659;28;20037;-69
2022/11/22 09:22:14;;;;;;;8.55;2.90;;;;;;;5.92;100.00;95156.19;5008616;28;20042;-67
2022/11/22 09:24:39;;;;;;;9.68;3.00;;;;;;;5.94;100.00;95157.41;4995302;28;20034;-69
2022/11/22 09:27:05;;;;;;;12.68;3.25;;;;;;;6.11;100.00;95164.19;5010235;28;20431;-68
2022/11/22 09:29:30;;;;;;;9.80;2.33;;;;;;;6.11;100.00;95174.28;5004376;28;20038;-69
2022/11/22 09:31:56;;;;;;;9.43;2.63;;;;;;;6.37;100.00;95173.31;5012816;28;20568;-70
2022/11/22 09:34:21;;;;;;;11.13;2.50;;;;;;;6.51;100.00;95176.16;5010288;28;20060;-67
2022/11/22 09:36:47;;;;;;;12.43;2.60;;;;;;;6.28;100.00;95178.28;5014265;28;21426;-67
2022/11/22 09:39:12;;;;;;;8.55;2.22;;;;;;;6.43;100.00;95182.72;5012056;28;20037;-70
2022/11/22 09:42:09;;;;;;;6.10;1.70;;;;;;;6.42;100.00;95181.13;5022550;28;20061;-70
2022/11/22 09:44:56;;;;;;;11.82;1.92;;;;;;;6.63;100.00;95177.03;5012509;28;20526;-69
2022/11/22 09:47:46;;;;;;;6.47;1.75;;;;;;;6.23;100.00;95184.88;5019778;28;21352;-69
2022/11/22 09:50:28;;;;;;;4.47;1.90;;;;;;;6.07;100.00;95190.56;4992059;28;20041;-69
2022/11/22 09:53:09;;;;;;;7.43;2.00;;;;;;;6.05;100.00;95181.19;5014624;28;20041;-69
2022/11/22 09:55:37;;;;;;;6.47;1.80;;;;;;;6.18;100.00;95179.00;5013423;28;20037;-69
2022/11/22 09:58:11;;;;;;;7.50;1.67;;;;;;;6.15;100.00;95188.66;5011103;28;20034;-68
2022/11/22 10:00:36;;;;;;;7.18;1.58;;;;;;;6.28;100.00;95197.31;5014179;28;20037;-70
2022/11/22 10:03:27;;;;;;;9.60;2.17;;;;;;;6.29;100.00;95188.03;5000645;28;20045;-68
2022/11/22 10:05:56;;;;;;;12.07;1.75;;;;;;;6.25;100.00;95184.50;5014102;28;20072;-70
2022/11/22 10:08:45;;;;;;;6.20;1.85;;;;;;;6.30;100.00;95182.22;4988886;28;20122;-69
2022/11/22 10:11:27;;;;;;;4.10;1.50;;;;;;;6.39;100.00;95179.19;5009725;28;20034;-69
2022/11/22 10:13:59;;;;;;;11.00;1.90;;;;;;;6.53;100.00;95183.16;5015380;28;20033;-69
2022/11/22 10:16:34;;;;;;;10.50;1.83;;;;;;;6.56;100.00;95185.13;5008285;28;20499;-68
2022/11/22 10:19:28;;;;;;;16.83;1.77;;;;;;;6.62;100.00;95181.66;5002184;28;20060;-69
2022/11/22 10:21:54;;;;;;;21.83;2.53;;;;;;;6.74;100.00;95186.03;5011514;28;20038;-69
2022/11/22 10:24:19;;;;;;;9.10;1.88;;;;;;;6.82;100.00;95178.69;5009262;28;20044;-70
2022/11/22 10:26:45;;;;;;;8.32;2.15;;;;;;;6.74;100.00;95180.59;5014224;28;20061;-69
2022/11/22 10:29:28;;;;;;;9.27;1.80;;;;;;;6.92;98.72;95185.38;4994855;28;20498;-69
2022/11/22 10:31:58;;;;;;;7.28;1.60;;;;;;;7.08;97.73;95181.19;5015426;28;20068;-69
2022/11/22 10:34:36;;;;;;;9.77;1.90;;;;;;;7.02;98.59;95174.56;5008512;28;20033;-68
2022/11/22 10:37:39;;;;;;;12.68;2.53;;;;;;;6.81;99.09;95177.16;5016327;28;20093;-67
2022/11/22 10:40:14;;;;;;;7.28;1.70;;;;;;;6.65;99.87;95180.16;4986884;28;20096;-67
2022/11/22 10:42:59;;;;;;;5.10;1.88;;;;;;;6.62;100.00;95178.94;5015294;28;20076;-68
2022/11/22 10:45:31;;;;;;;10.38;2.20;;;;;;;6.61;100.00;95182.03;5009763;28;20042;-69
2022/11/22 10:47:56;;;;;;;17.33;3.05;;;;;;;6.70;100.00;95177.84;5008910;28;20128;-68
2022/11/22 10:50:30;;;;;;;9.88;2.22;;;;;;;6.73;100.00;95173.56;4994057;28;20053;-69
2022/11/22 10:53:00;;;;;;;12.35;1.63;;;;;;;6.74;100.00;95180.59;5026057;28;20055;-68
2022/11/22 10:55:54;;;;;;;8.85;2.15;;;;;;;6.85;100.00;95178.72;4998314;28;20033;-69
2022/11/22 10:58:44;;;;;;;7.72;2.88;;;;;;;6.80;100.00;95175.56;5015849;28;20045;-68
2022/11/22 11:01:23;;;;;;;8.45;2.42;;;;;;;6.78;100.00;95181.38;5010330;28;20034;-69
2022/11/22 11:03:56;;;;;;;8.02;2.35;;;;;;;6.61;100.00;95180.13;5018939;28;20484;-68
2022/11/22 11:06:34;;;;;;;11.93;2.80;;;;;;;6.58;100.00;95174.66;5019325;28;20046;-68
2022/11/22 11:09:06;;;;;;;7.20;1.45;;;;;;;6.47;100.00;95174.56;5004175;28;20041;-68
2022/11/22 11:11:33;;;;;;;10.32;2.00;;;;;;;6.73;100.00;95178.25;5003705;28;20052;-68
2022/11/22 11:14:06;;;;;;;9.82;2.40;;;;;;;6.84;100.00;95173.66;5003087;28;20042;-68
2022/11/22 11:16:35;;;;;;;11.45;2.15;;;;;;;6.89;100.00;95165.91;4985438;28;20399;-66
2022/11/22 11:19:03;;;;;;;10.07;2.22;;;;;;;6.82;100.00;95165.09;5004906;28;20124;-68
2022/11/22 11:21:29;;;;;;;6.82;1.73;;;;;;;6.73;100.00;95162.69;5007915;28;20084;-69
2022/11/22 11:23:54;;;;;;;11.20;2.13;;;;;;;6.84;100.00;95162.75;5005780;28;20045;-69
2022/11/22 11:26:25;;;;;;;7.88;2.00;;;;;;;6.74;100.00;95166.22;5032686;28;20039;-68
2022/11/22 11:29:10;;;;;;;5.47;2.13;;;;;;;6.84;100.00;95160.84;5043817;28;20639;-67
2022/11/22 11:31:44;;;;;;;4.88;1.58;;;;;;;6.77;100.00;95166.25;5021528;28;20099;-69
2022/11/22 11:34:37;;;;;;;7.68;1.65;;;;;;;6.71;100.00;95159.56;5019330;28;20042;-68
2022/11/22 11:37:04;;;;;;;6.00;1.70;;;;;;;6.76;100.00;95167.38;5018380;28;20037;-69
2022/11/22 11:39:32;;;;;;;4.97;1.17;;;;;;;6.61;100.00;95163.00;5005124;28;20045;-68
2022/11/22 11:41:58;;;;;;;6.22;1.50;;;;;;;6.62;100.00;95157.19;5023823;28;20045;-69
2022/11/22 11:44:30;;;;;;;8.30;1.45;;;;;;;6.76;100.00;95161.94;5022115;28;20556;-68
2022/11/22 11:46:56;;;;;;;5.47;1.63;;;;;;;6.76;100.00;95155.72;5026140;28;20192;-68